X  Schließen METAR Luftfahrt Wetterdaten     EDTY Adolf Würth Airport
Temperatur
0°C Temperatur
-1°C Taupunkt
93% Feuchtigkeit



Wind
5 KM/S
3 MPS
1 M/S
3 KTS



80°
Ost
Aktuelle Wetterlage

Klar Klar
Luftdruck 1021.92 (hPa) - 30.18 (inHg)
Sichtweite 5 (Meile) - 8 (Km)
Flughafen
Flughafen Code EDTY

Position : Adolf Würth Airport
Entfernung: 59 (Km)

Metar:
EDTY 250350Z 08003KT 8000 NSC M00/M01 Q1022

Zeit: 25-10-2021 05:50 CEST